sensor_id;sensor_type;location;lat;lon;timestamp;P1;durP1;ratioP1;P2;durP2;ratioP2
33150;SDS011;19508;42.578;23.416;2023-04-25T00:00:19;16.25;;;7.20;;
33150;SDS011;19508;42.578;23.416;2023-04-25T00:02:45;17.95;;;7.53;;
33150;SDS011;19508;42.578;23.416;2023-04-25T00:05:11;19.80;;;8.68;;
33150;SDS011;19508;42.578;23.416;2023-04-25T00:07:37;16.25;;;8.70;;
33150;SDS011;19508;42.578;23.416;2023-04-25T00:10:03;12.23;;;8.25;;
33150;SDS011;19508;42.578;23.416;2023-04-25T00:12:29;11.80;;;7.82;;
33150;SDS011;19508;42.578;23.416;2023-04-25T00:14:54;13.05;;;7.88;;
33150;SDS011;19508;42.578;23.416;2023-04-25T00:17:22;14.00;;;7.68;;
33150;SDS011;19508;42.578;23.416;2023-04-25T00:19:49;13.50;;;8.25;;
33150;SDS011;19508;42.578;23.416;2023-04-25T00:22:15;14.02;;;8.63;;
33150;SDS011;19508;42.578;23.416;2023-04-25T00:24:42;15.40;;;8.93;;
33150;SDS011;19508;42.578;23.416;2023-04-25T00:27:07;14.38;;;9.32;;
33150;SDS011;19508;42.578;23.416;2023-04-25T00:29:33;18.33;;;10.35;;
33150;SDS011;19508;42.578;23.416;2023-04-25T00:31:58;21.25;;;10.57;;
33150;SDS011;19508;42.578;23.416;2023-04-25T00:34:24;20.13;;;11.52;;
33150;SDS011;19508;42.578;23.416;2023-04-25T00:36:49;25.08;;;13.02;;
33150;SDS011;19508;42.578;23.416;2023-04-25T00:39:15;21.52;;;12.10;;
33150;SDS011;19508;42.578;23.416;2023-04-25T00:41:40;20.00;;;11.85;;
33150;SDS011;19508;42.578;23.416;2023-04-25T00:44:06;19.65;;;12.52;;
33150;SDS011;19508;42.578;23.416;2023-04-25T00:46:33;19.85;;;12.68;;
33150;SDS011;19508;42.578;23.416;2023-04-25T00:49:00;21.20;;;13.27;;
33150;SDS011;19508;42.578;23.416;2023-04-25T00:51:26;21.83;;;13.35;;
33150;SDS011;19508;42.578;23.416;2023-04-25T00:53:51;19.00;;;11.50;;
33150;SDS011;19508;42.578;23.416;2023-04-25T00:56:18;20.27;;;12.25;;
33150;SDS011;19508;42.578;23.416;2023-04-25T00:58:43;22.33;;;12.70;;
33150;SDS011;19508;42.578;23.416;2023-04-25T01:01:10;23.25;;;13.07;;
33150;SDS011;19508;42.578;23.416;2023-04-25T01:03:37;22.02;;;11.73;;
33150;SDS011;19508;42.578;23.416;2023-04-25T01:06:10;17.45;;;10.93;;
33150;SDS011;19508;42.578;23.416;2023-04-25T01:08:37;21.38;;;11.70;;
33150;SDS011;19508;42.578;23.416;2023-04-25T01:11:03;15.90;;;10.02;;
33150;SDS011;19508;42.578;23.416;2023-04-25T01:13:29;13.15;;;9.27;;
33150;SDS011;19508;42.578;23.416;2023-04-25T01:15:56;10.43;;;8.30;;
33150;SDS011;19508;42.578;23.416;2023-04-25T01:18:22;11.75;;;8.20;;
33150;SDS011;19508;42.578;23.416;2023-04-25T01:20:49;10.73;;;8.43;;
33150;SDS011;19508;42.578;23.416;2023-04-25T01:23:16;11.10;;;8.82;;
33150;SDS011;19508;42.578;23.416;2023-04-25T01:25:43;14.88;;;10.13;;
33150;SDS011;19508;42.578;23.416;2023-04-25T01:28:09;13.05;;;10.15;;
33150;SDS011;19508;42.578;23.416;2023-04-25T01:30:34;15.02;;;11.07;;
33150;SDS011;19508;42.578;23.416;2023-04-25T01:33:00;14.05;;;9.95;;
33150;SDS011;19508;42.578;23.416;2023-04-25T01:35:29;15.20;;;9.30;;
33150;SDS011;19508;42.578;23.416;2023-04-25T01:37:55;14.48;;;9.43;;
33150;SDS011;19508;42.578;23.416;2023-04-25T01:40:20;11.85;;;9.10;;
33150;SDS011;19508;42.578;23.416;2023-04-25T01:42:47;16.27;;;9.68;;
33150;SDS011;19508;42.578;23.416;2023-04-25T01:45:13;12.65;;;8.98;;
33150;SDS011;19508;42.578;23.416;2023-04-25T01:47:39;11.27;;;8.77;;
33150;SDS011;19508;42.578;23.416;2023-04-25T01:50:05;15.32;;;8.98;;
33150;SDS011;19508;42.578;23.416;2023-04-25T01:52:32;11.85;;;8.05;;
33150;SDS011;19508;42.578;23.416;2023-04-25T01:54:59;14.75;;;10.85;;
33150;SDS011;19508;42.578;23.416;2023-04-25T01:57:26;23.00;;;13.63;;
33150;SDS011;19508;42.578;23.416;2023-04-25T01:59:54;21.17;;;13.23;;
33150;SDS011;19508;42.578;23.416;2023-04-25T02:02:24;12.70;;;9.45;;
33150;SDS011;19508;42.578;23.416;2023-04-25T02:04:51;18.33;;;13.05;;
33150;SDS011;19508;42.578;23.416;2023-04-25T02:07:16;12.38;;;9.45;;
33150;SDS011;19508;42.578;23.416;2023-04-25T02:09:42;16.20;;;11.15;;
33150;SDS011;19508;42.578;23.416;2023-04-25T02:12:08;16.10;;;12.23;;
33150;SDS011;19508;42.578;23.416;2023-04-25T02:14:35;17.30;;;12.10;;
33150;SDS011;19508;42.578;23.416;2023-04-25T02:17:00;18.63;;;11.43;;
33150;SDS011;19508;42.578;23.416;2023-04-25T02:19:26;18.55;;;11.05;;
33150;SDS011;19508;42.578;23.416;2023-04-25T02:21:51;18.02;;;11.40;;
33150;SDS011;19508;42.578;23.416;2023-04-25T02:24:17;24.52;;;10.93;;
33150;SDS011;19508;42.578;23.416;2023-04-25T02:26:42;19.88;;;12.05;;
33150;SDS011;19508;42.578;23.416;2023-04-25T02:29:08;27.17;;;13.35;;
33150;SDS011;19508;42.578;23.416;2023-04-25T02:31:34;36.60;;;20.88;;
33150;SDS011;19508;42.578;23.416;2023-04-25T02:34:00;31.38;;;18.10;;
33150;SDS011;19508;42.578;23.416;2023-04-25T02:36:25;37.53;;;23.90;;
33150;SDS011;19508;42.578;23.416;2023-04-25T02:38:51;35.78;;;19.60;;
33150;SDS011;19508;42.578;23.416;2023-04-25T02:41:17;24.77;;;15.75;;
33150;SDS011;19508;42.578;23.416;2023-04-25T02:43:42;26.67;;;15.40;;
33150;SDS011;19508;42.578;23.416;2023-04-25T02:46:08;27.45;;;14.50;;
33150;SDS011;19508;42.578;23.416;2023-04-25T02:48:33;26.85;;;15.93;;
33150;SDS011;19508;42.578;23.416;2023-04-25T02:50:59;33.72;;;17.38;;
33150;SDS011;19508;42.578;23.416;2023-04-25T02:53:24;36.83;;;18.77;;
33150;SDS011;19508;42.578;23.416;2023-04-25T02:55:50;30.38;;;18.48;;
33150;SDS011;19508;42.578;23.416;2023-04-25T02:58:17;37.85;;;20.67;;
33150;SDS011;19508;42.578;23.416;2023-04-25T03:00:42;30.80;;;18.10;;
33150;SDS011;19508;42.578;23.416;2023-04-25T03:03:08;36.60;;;19.13;;
33150;SDS011;19508;42.578;23.416;2023-04-25T03:05:33;33.90;;;19.60;;
33150;SDS011;19508;42.578;23.416;2023-04-25T03:07:59;30.77;;;18.63;;
33150;SDS011;19508;42.578;23.416;2023-04-25T03:10:24;30.08;;;18.27;;
33150;SDS011;19508;42.578;23.416;2023-04-25T03:12:50;36.72;;;21.33;;
33150;SDS011;19508;42.578;23.416;2023-04-25T03:15:15;35.55;;;19.85;;
33150;SDS011;19508;42.578;23.416;2023-04-25T03:17:41;40.55;;;21.13;;
33150;SDS011;19508;42.578;23.416;2023-04-25T03:20:07;48.88;;;22.08;;
33150;SDS011;19508;42.578;23.416;2023-04-25T03:22:33;56.55;;;32.17;;
33150;SDS011;19508;42.578;23.416;2023-04-25T03:24:58;42.92;;;22.10;;
33150;SDS011;19508;42.578;23.416;2023-04-25T03:27:24;51.58;;;25.65;;
33150;SDS011;19508;42.578;23.416;2023-04-25T03:29:49;41.10;;;21.10;;
33150;SDS011;19508;42.578;23.416;2023-04-25T03:32:15;43.25;;;22.08;;
33150;SDS011;19508;42.578;23.416;2023-04-25T03:34:40;38.40;;;20.73;;
33150;SDS011;19508;42.578;23.416;2023-04-25T03:37:06;43.03;;;21.58;;
33150;SDS011;19508;42.578;23.416;2023-04-25T03:39:31;37.17;;;19.98;;
33150;SDS011;19508;42.578;23.416;2023-04-25T03:41:57;38.55;;;22.30;;
33150;SDS011;19508;42.578;23.416;2023-04-25T03:44:22;54.15;;;24.42;;
33150;SDS011;19508;42.578;23.416;2023-04-25T03:46:49;58.88;;;25.40;;
33150;SDS011;19508;42.578;23.416;2023-04-25T03:49:14;37.97;;;21.55;;
33150;SDS011;19508;42.578;23.416;2023-04-25T03:51:40;42.25;;;22.17;;
33150;SDS011;19508;42.578;23.416;2023-04-25T03:54:05;31.15;;;18.10;;
33150;SDS011;19508;42.578;23.416;2023-04-25T03:56:30;23.85;;;15.27;;
33150;SDS011;19508;42.578;23.416;2023-04-25T03:58:56;41.55;;;25.77;;
33150;SDS011;19508;42.578;23.416;2023-04-25T04:01:21;36.00;;;23.77;;
33150;SDS011;19508;42.578;23.416;2023-04-25T04:03:47;33.85;;;21.98;;
33150;SDS011;19508;42.578;23.416;2023-04-25T04:06:12;32.58;;;20.40;;
33150;SDS011;19508;42.578;23.416;2023-04-25T04:08:38;17.55;;;12.35;;
33150;SDS011;19508;42.578;23.416;2023-04-25T04:11:03;12.40;;;7.88;;
33150;SDS011;19508;42.578;23.416;2023-04-25T04:13:29;9.75;;;6.90;;
33150;SDS011;19508;42.578;23.416;2023-04-25T04:15:55;10.05;;;6.13;;
33150;SDS011;19508;42.578;23.416;2023-04-25T04:18:20;10.90;;;5.53;;
33150;SDS011;19508;42.578;23.416;2023-04-25T04:20:46;6.57;;;5.25;;
33150;SDS011;19508;42.578;23.416;2023-04-25T04:23:12;9.60;;;5.10;;
33150;SDS011;19508;42.578;23.416;2023-04-25T04:25:37;9.60;;;5.15;;
33150;SDS011;19508;42.578;23.416;2023-04-25T04:28:03;11.77;;;5.18;;
33150;SDS011;19508;42.578;23.416;2023-04-25T04:30:28;5.40;;;4.63;;
33150;SDS011;19508;42.578;23.416;2023-04-25T04:32:58;5.93;;;4.63;;
33150;SDS011;19508;42.578;23.416;2023-04-25T04:35:23;10.38;;;4.60;;
33150;SDS011;19508;42.578;23.416;2023-04-25T04:37:50;7.35;;;4.25;;
33150;SDS011;19508;42.578;23.416;2023-04-25T04:40:15;7.32;;;3.88;;
33150;SDS011;19508;42.578;23.416;2023-04-25T04:42:42;6.75;;;4.80;;
33150;SDS011;19508;42.578;23.416;2023-04-25T04:45:10;4.93;;;4.25;;
33150;SDS011;19508;42.578;23.416;2023-04-25T04:47:36;5.03;;;4.15;;
33150;SDS011;19508;42.578;23.416;2023-04-25T04:50:02;5.15;;;4.32;;
33150;SDS011;19508;42.578;23.416;2023-04-25T04:52:29;5.57;;;4.22;;
33150;SDS011;19508;42.578;23.416;2023-04-25T04:54:54;8.65;;;4.88;;
33150;SDS011;19508;42.578;23.416;2023-04-25T04:57:20;9.05;;;5.32;;
33150;SDS011;19508;42.578;23.416;2023-04-25T04:59:45;7.78;;;4.97;;
33150;SDS011;19508;42.578;23.416;2023-04-25T05:02:11;5.25;;;4.47;;
33150;SDS011;19508;42.578;23.416;2023-04-25T05:04:36;4.57;;;4.00;;
33150;SDS011;19508;42.578;23.416;2023-04-25T05:07:02;4.75;;;4.20;;
33150;SDS011;19508;42.578;23.416;2023-04-25T05:09:27;5.18;;;4.13;;
33150;SDS011;19508;42.578;23.416;2023-04-25T05:11:53;6.72;;;4.35;;
33150;SDS011;19508;42.578;23.416;2023-04-25T05:14:18;9.48;;;3.83;;
33150;SDS011;19508;42.578;23.416;2023-04-25T05:16:44;7.18;;;4.32;;
33150;SDS011;19508;42.578;23.416;2023-04-25T05:19:09;11.20;;;6.45;;
33150;SDS011;19508;42.578;23.416;2023-04-25T05:21:35;13.80;;;7.90;;
33150;SDS011;19508;42.578;23.416;2023-04-25T05:24:00;13.65;;;8.18;;
33150;SDS011;19508;42.578;23.416;2023-04-25T05:26:26;9.88;;;7.57;;
33150;SDS011;19508;42.578;23.416;2023-04-25T05:28:55;17.67;;;10.05;;
33150;SDS011;19508;42.578;23.416;2023-04-25T05:31:21;18.98;;;12.05;;
33150;SDS011;19508;42.578;23.416;2023-04-25T05:33:47;18.70;;;11.93;;
33150;SDS011;19508;42.578;23.416;2023-04-25T05:36:12;18.98;;;11.90;;
33150;SDS011;19508;42.578;23.416;2023-04-25T05:38:38;18.92;;;12.25;;
33150;SDS011;19508;42.578;23.416;2023-04-25T05:41:03;22.67;;;15.75;;
33150;SDS011;19508;42.578;23.416;2023-04-25T05:43:29;35.67;;;22.88;;
33150;SDS011;19508;42.578;23.416;2023-04-25T05:45:54;35.95;;;22.33;;
33150;SDS011;19508;42.578;23.416;2023-04-25T05:48:20;29.92;;;19.42;;
33150;SDS011;19508;42.578;23.416;2023-04-25T05:50:45;32.45;;;18.15;;
33150;SDS011;19508;42.578;23.416;2023-04-25T05:53:10;31.13;;;18.73;;
33150;SDS011;19508;42.578;23.416;2023-04-25T05:55:36;32.33;;;20.88;;
33150;SDS011;19508;42.578;23.416;2023-04-25T05:58:01;34.88;;;22.58;;
33150;SDS011;19508;42.578;23.416;2023-04-25T06:00:27;34.03;;;20.50;;
33150;SDS011;19508;42.578;23.416;2023-04-25T06:02:52;41.95;;;23.67;;
33150;SDS011;19508;42.578;23.416;2023-04-25T06:05:17;39.63;;;23.75;;
33150;SDS011;19508;42.578;23.416;2023-04-25T06:07:43;31.75;;;20.20;;
33150;SDS011;19508;42.578;23.416;2023-04-25T06:10:08;34.63;;;19.67;;
33150;SDS011;19508;42.578;23.416;2023-04-25T06:12:34;31.17;;;19.08;;
33150;SDS011;19508;42.578;23.416;2023-04-25T06:15:00;27.10;;;19.05;;
33150;SDS011;19508;42.578;23.416;2023-04-25T06:17:25;33.15;;;19.83;;
33150;SDS011;19508;42.578;23.416;2023-04-25T06:19:51;39.70;;;23.30;;
33150;SDS011;19508;42.578;23.416;2023-04-25T06:22:16;41.92;;;24.85;;
33150;SDS011;19508;42.578;23.416;2023-04-25T06:24:42;44.72;;;25.65;;
33150;SDS011;19508;42.578;23.416;2023-04-25T06:27:07;36.83;;;23.15;;
33150;SDS011;19508;42.578;23.416;2023-04-25T06:29:33;34.55;;;21.67;;
33150;SDS011;19508;42.578;23.416;2023-04-25T06:31:58;29.90;;;19.63;;
33150;SDS011;19508;42.578;23.416;2023-04-25T06:34:23;33.55;;;19.98;;
33150;SDS011;19508;42.578;23.416;2023-04-25T06:36:49;42.03;;;24.17;;
33150;SDS011;19508;42.578;23.416;2023-04-25T06:39:14;35.45;;;23.77;;
33150;SDS011;19508;42.578;23.416;2023-04-25T06:41:40;39.00;;;23.05;;
33150;SDS011;19508;42.578;23.416;2023-04-25T06:44:05;36.17;;;22.33;;
33150;SDS011;19508;42.578;23.416;2023-04-25T06:46:31;33.85;;;21.92;;
33150;SDS011;19508;42.578;23.416;2023-04-25T06:48:56;34.28;;;20.67;;
33150;SDS011;19508;42.578;23.416;2023-04-25T06:51:22;30.55;;;18.05;;
33150;SDS011;19508;42.578;23.416;2023-04-25T06:53:47;28.88;;;18.48;;
33150;SDS011;19508;42.578;23.416;2023-04-25T06:56:12;36.58;;;22.05;;
33150;SDS011;19508;42.578;23.416;2023-04-25T06:58:38;28.73;;;18.98;;
33150;SDS011;19508;42.578;23.416;2023-04-25T07:01:03;28.48;;;19.20;;
33150;SDS011;19508;42.578;23.416;2023-04-25T07:03:29;24.67;;;16.50;;
33150;SDS011;19508;42.578;23.416;2023-04-25T07:05:55;28.85;;;15.70;;
33150;SDS011;19508;42.578;23.416;2023-04-25T07:08:20;21.50;;;13.95;;
33150;SDS011;19508;42.578;23.416;2023-04-25T07:10:46;28.48;;;13.57;;
33150;SDS011;19508;42.578;23.416;2023-04-25T07:13:11;20.38;;;13.40;;
33150;SDS011;19508;42.578;23.416;2023-04-25T07:15:37;17.40;;;12.10;;
33150;SDS011;19508;42.578;23.416;2023-04-25T07:18:02;18.00;;;12.05;;
33150;SDS011;19508;42.578;23.416;2023-04-25T07:20:28;17.38;;;12.05;;
33150;SDS011;19508;42.578;23.416;2023-04-25T07:22:53;19.95;;;11.32;;
33150;SDS011;19508;42.578;23.416;2023-04-25T07:25:19;15.13;;;10.02;;
33150;SDS011;19508;42.578;23.416;2023-04-25T07:27:45;10.70;;;8.38;;
33150;SDS011;19508;42.578;23.416;2023-04-25T07:30:11;12.68;;;7.80;;
33150;SDS011;19508;42.578;23.416;2023-04-25T07:32:37;14.70;;;7.53;;
33150;SDS011;19508;42.578;23.416;2023-04-25T07:35:02;8.20;;;6.60;;
33150;SDS011;19508;42.578;23.416;2023-04-25T07:37:28;8.55;;;6.75;;
33150;SDS011;19508;42.578;23.416;2023-04-25T07:39:53;12.75;;;6.50;;
33150;SDS011;19508;42.578;23.416;2023-04-25T07:42:19;14.70;;;9.88;;
33150;SDS011;19508;42.578;23.416;2023-04-25T07:44:44;17.30;;;12.90;;
33150;SDS011;19508;42.578;23.416;2023-04-25T07:47:10;19.48;;;13.18;;
33150;SDS011;19508;42.578;23.416;2023-04-25T07:49:36;16.80;;;11.98;;
33150;SDS011;19508;42.578;23.416;2023-04-25T07:52:02;16.58;;;10.85;;
33150;SDS011;19508;42.578;23.416;2023-04-25T07:54:29;16.92;;;10.18;;
33150;SDS011;19508;42.578;23.416;2023-04-25T07:56:54;14.55;;;9.25;;
33150;SDS011;19508;42.578;23.416;2023-04-25T07:59:20;15.82;;;9.60;;
33150;SDS011;19508;42.578;23.416;2023-04-25T08:01:46;9.27;;;6.80;;
33150;SDS011;19508;42.578;23.416;2023-04-25T08:04:12;9.23;;;6.50;;
33150;SDS011;19508;42.578;23.416;2023-04-25T08:06:37;10.02;;;5.72;;
33150;SDS011;19508;42.578;23.416;2023-04-25T08:09:02;7.30;;;5.57;;
33150;SDS011;19508;42.578;23.416;2023-04-25T08:11:29;6.68;;;5.30;;
33150;SDS011;19508;42.578;23.416;2023-04-25T08:13:54;13.38;;;6.45;;
33150;SDS011;19508;42.578;23.416;2023-04-25T08:16:20;11.60;;;5.07;;
33150;SDS011;19508;42.578;23.416;2023-04-25T08:18:45;7.65;;;5.50;;
33150;SDS011;19508;42.578;23.416;2023-04-25T08:21:11;6.18;;;4.75;;
33150;SDS011;19508;42.578;23.416;2023-04-25T08:23:37;10.98;;;5.93;;
33150;SDS011;19508;42.578;23.416;2023-04-25T08:26:03;13.02;;;7.03;;
33150;SDS011;19508;42.578;23.416;2023-04-25T08:28:30;7.60;;;5.50;;
33150;SDS011;19508;42.578;23.416;2023-04-25T08:30:56;9.57;;;3.97;;
33150;SDS011;19508;42.578;23.416;2023-04-25T08:33:21;8.68;;;3.42;;
33150;SDS011;19508;42.578;23.416;2023-04-25T08:35:46;6.47;;;3.67;;
33150;SDS011;19508;42.578;23.416;2023-04-25T08:38:12;8.05;;;3.92;;
33150;SDS011;19508;42.578;23.416;2023-04-25T08:40:38;4.63;;;3.40;;
33150;SDS011;19508;42.578;23.416;2023-04-25T08:43:05;3.25;;;2.83;;
33150;SDS011;19508;42.578;23.416;2023-04-25T08:48:03;7.28;;;4.07;;
33150;SDS011;19508;42.578;23.416;2023-04-25T08:50:30;12.68;;;4.13;;
33150;SDS011;19508;42.578;23.416;2023-04-25T08:52:56;5.68;;;3.38;;
33150;SDS011;19508;42.578;23.416;2023-04-25T08:55:26;5.55;;;3.38;;
33150;SDS011;19508;42.578;23.416;2023-04-25T08:57:53;7.20;;;3.80;;
33150;SDS011;19508;42.578;23.416;2023-04-25T09:00:21;5.57;;;3.45;;
33150;SDS011;19508;42.578;23.416;2023-04-25T09:02:47;8.45;;;3.83;;
33150;SDS011;19508;42.578;23.416;2023-04-25T09:05:13;4.53;;;2.15;;
33150;SDS011;19508;42.578;23.416;2023-04-25T09:07:39;1.20;;;1.10;;
33150;SDS011;19508;42.578;23.416;2023-04-25T09:10:05;2.97;;;1.40;;
33150;SDS011;19508;42.578;23.416;2023-04-25T09:12:30;5.30;;;2.28;;
33150;SDS011;19508;42.578;23.416;2023-04-25T09:17:35;3.83;;;2.30;;
33150;SDS011;19508;42.578;23.416;2023-04-25T09:20:23;3.45;;;2.40;;
33150;SDS011;19508;42.578;23.416;2023-04-25T09:22:49;5.97;;;2.10;;
33150;SDS011;19508;42.578;23.416;2023-04-25T09:25:26;4.82;;;2.47;;
33150;SDS011;19508;42.578;23.416;2023-04-25T09:27:54;4.57;;;2.42;;
33150;SDS011;19508;42.578;23.416;2023-04-25T09:30:30;9.35;;;2.67;;
33150;SDS011;19508;42.578;23.416;2023-04-25T09:32:57;6.10;;;2.40;;
33150;SDS011;19508;42.578;23.416;2023-04-25T09:35:30;10.52;;;2.70;;
33150;SDS011;19508;42.578;23.416;2023-04-25T09:38:07;4.30;;;3.20;;
33150;SDS011;19508;42.578;23.416;2023-04-25T09:43:10;6.70;;;2.00;;
33150;SDS011;19508;42.578;23.416;2023-04-25T09:45:43;13.13;;;3.45;;
33150;SDS011;19508;42.578;23.416;2023-04-25T09:48:16;4.88;;;2.35;;
33150;SDS011;19508;42.578;23.416;2023-04-25T09:53:42;5.45;;;2.05;;
33150;SDS011;19508;42.578;23.416;2023-04-25T09:56:09;3.70;;;2.15;;
33150;SDS011;19508;42.578;23.416;2023-04-25T09:58:37;4.32;;;2.20;;
33150;SDS011;19508;42.578;23.416;2023-04-25T10:01:13;7.40;;;2.47;;
33150;SDS011;19508;42.578;23.416;2023-04-25T10:03:41;9.20;;;2.78;;
33150;SDS011;19508;42.578;23.416;2023-04-25T10:06:09;4.50;;;2.85;;
33150;SDS011;19508;42.578;23.416;2023-04-25T10:08:39;4.00;;;2.20;;
33150;SDS011;19508;42.578;23.416;2023-04-25T10:11:06;2.95;;;1.77;;
33150;SDS011;19508;42.578;23.416;2023-04-25T10:13:33;4.53;;;1.58;;
33150;SDS011;19508;42.578;23.416;2023-04-25T10:16:01;3.08;;;1.70;;
33150;SDS011;19508;42.578;23.416;2023-04-25T10:18:28;3.15;;;1.75;;
33150;SDS011;19508;42.578;23.416;2023-04-25T10:20:54;3.72;;;1.88;;
33150;SDS011;19508;42.578;23.416;2023-04-25T10:23:21;3.92;;;1.23;;
33150;SDS011;19508;42.578;23.416;2023-04-25T10:25:47;14.43;;;2.10;;
33150;SDS011;19508;42.578;23.416;2023-04-25T10:28:14;7.32;;;1.48;;
33150;SDS011;19508;42.578;23.416;2023-04-25T10:30:56;7.68;;;1.90;;
33150;SDS011;19508;42.578;23.416;2023-04-25T10:33:28;10.10;;;2.35;;
33150;SDS011;19508;42.578;23.416;2023-04-25T10:35:57;2.67;;;1.38;;
33150;SDS011;19508;42.578;23.416;2023-04-25T10:38:23;3.47;;;1.00;;
33150;SDS011;19508;42.578;23.416;2023-04-25T10:41:02;5.28;;;1.30;;
33150;SDS011;19508;42.578;23.416;2023-04-25T10:43:36;4.10;;;2.53;;
33150;SDS011;19508;42.578;23.416;2023-04-25T10:48:38;3.20;;;1.90;;
33150;SDS011;19508;42.578;23.416;2023-04-25T10:51:11;4.07;;;2.05;;
33150;SDS011;19508;42.578;23.416;2023-04-25T10:53:37;3.22;;;1.42;;
33150;SDS011;19508;42.578;23.416;2023-04-25T10:59:14;2.92;;;1.55;;
33150;SDS011;19508;42.578;23.416;2023-04-25T11:01:41;2.85;;;1.60;;
33150;SDS011;19508;42.578;23.416;2023-04-25T11:07:05;2.40;;;1.30;;
33150;SDS011;19508;42.578;23.416;2023-04-25T11:09:39;1.75;;;0.90;;
33150;SDS011;19508;42.578;23.416;2023-04-25T11:12:07;2.08;;;1.67;;
33150;SDS011;19508;42.578;23.416;2023-04-25T11:14:34;8.50;;;3.15;;
33150;SDS011;19508;42.578;23.416;2023-04-25T11:16:59;9.98;;;2.38;;
33150;SDS011;19508;42.578;23.416;2023-04-25T11:19:26;7.28;;;3.33;;
33150;SDS011;19508;42.578;23.416;2023-04-25T11:21:59;9.80;;;3.20;;
33150;SDS011;19508;42.578;23.416;2023-04-25T11:24:29;13.13;;;3.08;;
33150;SDS011;19508;42.578;23.416;2023-04-25T11:27:03;18.25;;;3.58;;
33150;SDS011;19508;42.578;23.416;2023-04-25T11:29:29;16.77;;;7.90;;
33150;SDS011;19508;42.578;23.416;2023-04-25T11:31:56;7.45;;;4.20;;
33150;SDS011;19508;42.578;23.416;2023-04-25T11:34:23;3.30;;;1.67;;
33150;SDS011;19508;42.578;23.416;2023-04-25T11:36:49;2.03;;;1.25;;
33150;SDS011;19508;42.578;23.416;2023-04-25T11:39:15;2.95;;;1.25;;
33150;SDS011;19508;42.578;23.416;2023-04-25T11:41:41;3.47;;;1.98;;
33150;SDS011;19508;42.578;23.416;2023-04-25T11:44:07;3.92;;;1.75;;
33150;SDS011;19508;42.578;23.416;2023-04-25T11:46:35;4.35;;;2.55;;
33150;SDS011;19508;42.578;23.416;2023-04-25T11:49:01;2.30;;;1.33;;
33150;SDS011;19508;42.578;23.416;2023-04-25T11:51:27;1.90;;;1.00;;
33150;SDS011;19508;42.578;23.416;2023-04-25T11:53:53;14.43;;;1.38;;
33150;SDS011;19508;42.578;23.416;2023-04-25T11:56:18;2.03;;;1.10;;
33150;SDS011;19508;42.578;23.416;2023-04-25T12:01:34;2.45;;;1.10;;
33150;SDS011;19508;42.578;23.416;2023-04-25T12:04:16;11.05;;;1.35;;
33150;SDS011;19508;42.578;23.416;2023-04-25T12:06:47;1.88;;;1.30;;
33150;SDS011;19508;42.578;23.416;2023-04-25T12:09:18;4.75;;;2.10;;
33150;SDS011;19508;42.578;23.416;2023-04-25T12:11:47;4.72;;;1.70;;
33150;SDS011;19508;42.578;23.416;2023-04-25T12:14:21;6.65;;;2.20;;
33150;SDS011;19508;42.578;23.416;2023-04-25T12:16:49;1.83;;;1.35;;
33150;SDS011;19508;42.578;23.416;2023-04-25T12:19:16;6.35;;;1.50;;
33150;SDS011;19508;42.578;23.416;2023-04-25T12:21:43;3.42;;;1.45;;
33150;SDS011;19508;42.578;23.416;2023-04-25T12:24:13;7.80;;;3.60;;
33150;SDS011;19508;42.578;23.416;2023-04-25T12:29:15;39.13;;;12.73;;
33150;SDS011;19508;42.578;23.416;2023-04-25T12:31:42;61.10;;;17.10;;
33150;SDS011;19508;42.578;23.416;2023-04-25T12:34:07;37.13;;;12.80;;
33150;SDS011;19508;42.578;23.416;2023-04-25T12:36:33;123.18;;;30.23;;
33150;SDS011;19508;42.578;23.416;2023-04-25T12:38:58;37.80;;;11.13;;
33150;SDS011;19508;42.578;23.416;2023-04-25T12:41:29;5.97;;;2.78;;
33150;SDS011;19508;42.578;23.416;2023-04-25T12:43:54;35.65;;;9.95;;
33150;SDS011;19508;42.578;23.416;2023-04-25T12:46:20;18.98;;;8.18;;
33150;SDS011;19508;42.578;23.416;2023-04-25T12:48:45;11.95;;;6.22;;
33150;SDS011;19508;42.578;23.416;2023-04-25T12:51:13;2.28;;;1.50;;
33150;SDS011;19508;42.578;23.416;2023-04-25T12:53:38;1.23;;;1.13;;
33150;SDS011;19508;42.578;23.416;2023-04-25T12:56:06;5.13;;;2.28;;
33150;SDS011;19508;42.578;23.416;2023-04-25T12:58:34;3.13;;;2.10;;
33150;SDS011;19508;42.578;23.416;2023-04-25T13:01:00;5.22;;;1.52;;
33150;SDS011;19508;42.578;23.416;2023-04-25T13:03:26;4.22;;;1.20;;
33150;SDS011;19508;42.578;23.416;2023-04-25T13:05:51;4.72;;;1.05;;
33150;SDS011;19508;42.578;23.416;2023-04-25T13:08:20;5.15;;;1.15;;
33150;SDS011;19508;42.578;23.416;2023-04-25T13:10:45;1.67;;;1.00;;
33150;SDS011;19508;42.578;23.416;2023-04-25T13:13:12;4.32;;;1.10;;
33150;SDS011;19508;42.578;23.416;2023-04-25T13:15:38;2.55;;;0.73;;
33150;SDS011;19508;42.578;23.416;2023-04-25T13:18:03;2.00;;;0.93;;
33150;SDS011;19508;42.578;23.416;2023-04-25T13:20:32;1.95;;;0.95;;
33150;SDS011;19508;42.578;23.416;2023-04-25T13:22:58;2.88;;;1.00;;
33150;SDS011;19508;42.578;23.416;2023-04-25T13:25:23;1.20;;;0.80;;
33150;SDS011;19508;42.578;23.416;2023-04-25T13:27:49;3.72;;;1.20;;
33150;SDS011;19508;42.578;23.416;2023-04-25T13:30:14;2.58;;;1.20;;
33150;SDS011;19508;42.578;23.416;2023-04-25T13:32:40;3.85;;;1.08;;
33150;SDS011;19508;42.578;23.416;2023-04-25T13:35:07;2.00;;;1.23;;
33150;SDS011;19508;42.578;23.416;2023-04-25T13:37:34;6.15;;;1.50;;
33150;SDS011;19508;42.578;23.416;2023-04-25T13:40:00;3.90;;;1.13;;
33150;SDS011;19508;42.578;23.416;2023-04-25T13:42:31;2.25;;;1.27;;
33150;SDS011;19508;42.578;23.416;2023-04-25T13:44:57;3.95;;;1.30;;
33150;SDS011;19508;42.578;23.416;2023-04-25T13:47:23;0.88;;;0.82;;
33150;SDS011;19508;42.578;23.416;2023-04-25T13:49:49;3.03;;;1.40;;
33150;SDS011;19508;42.578;23.416;2023-04-25T13:52:15;4.50;;;1.45;;
33150;SDS011;19508;42.578;23.416;2023-04-25T13:54:40;4.15;;;1.60;;
33150;SDS011;19508;42.578;23.416;2023-04-25T13:57:06;3.83;;;1.95;;
33150;SDS011;19508;42.578;23.416;2023-04-25T13:59:32;23.77;;;13.18;;
33150;SDS011;19508;42.578;23.416;2023-04-25T14:01:57;4.53;;;2.55;;
33150;SDS011;19508;42.578;23.416;2023-04-25T14:04:23;3.15;;;1.88;;
33150;SDS011;19508;42.578;23.416;2023-04-25T14:06:48;4.93;;;3.33;;
33150;SDS011;19508;42.578;23.416;2023-04-25T14:09:15;6.72;;;2.78;;
33150;SDS011;19508;42.578;23.416;2023-04-25T14:11:40;3.75;;;2.65;;
33150;SDS011;19508;42.578;23.416;2023-04-25T14:14:05;3.58;;;1.90;;
33150;SDS011;19508;42.578;23.416;2023-04-25T14:16:31;1.50;;;1.40;;
33150;SDS011;19508;42.578;23.416;2023-04-25T14:19:00;1.73;;;1.15;;
33150;SDS011;19508;42.578;23.416;2023-04-25T14:21:26;3.08;;;1.70;;
33150;SDS011;19508;42.578;23.416;2023-04-25T14:23:51;3.90;;;2.10;;
33150;SDS011;19508;42.578;23.416;2023-04-25T14:26:17;3.42;;;2.10;;
33150;SDS011;19508;42.578;23.416;2023-04-25T14:28:42;8.90;;;2.88;;
33150;SDS011;19508;42.578;23.416;2023-04-25T14:31:08;3.08;;;1.92;;
33150;SDS011;19508;42.578;23.416;2023-04-25T14:33:33;11.32;;;2.13;;
33150;SDS011;19508;42.578;23.416;2023-04-25T14:35:59;3.25;;;2.00;;
33150;SDS011;19508;42.578;23.416;2023-04-25T14:38:24;4.35;;;2.33;;
33150;SDS011;19508;42.578;23.416;2023-04-25T14:40:50;3.72;;;2.42;;
33150;SDS011;19508;42.578;23.416;2023-04-25T14:43:16;6.20;;;3.42;;